St. Elmo — WDG2405 — position and weather

sailwx.info

Track history (hours):
 
Tides and Currents Weather Stations Pressure Air Temp Water Temp Dewpoint Dewpoint Depression Visibility Wind Speed Wind Dir Waves Ship Positions

St. Elmo

Owner: Marquette Transportation Company Gulf-Inland, LLC, Jefferson, LA. More information available from US FCC via Universal Licensing System and Coast Guard Vessel Documentation Center.

Last reported at 2017-Feb-26 23:33 UTC. Time now 2017-Feb-28 03:18 UTC.
Position N 29°34' W 094°55'.

; draft 3 m.

Type: . MMSI: 367515330.

Date/timePositionNaut miles runAvg speedWind from/ knotsBaromVisibWave heightAir tempDewpointWater temp
2017-Feb-26 23:33N 29°34' W 094°55'6 6.0
2017-Feb-26 22:33N 29°39' W 094°58'6 5.9
2017-Feb-26 21:32N 29°44' W 095°03'3 2.1
2017-Feb-26 20:11N 29°46' W 095°05'0 0.0
2017-Feb-26 19:33N 29°46' W 095°05'5 5.1
2017-Feb-26 18:33N 29°42' W 095°01'6 5.8
2017-Feb-26 17:33N 29°37' W 094°57'6 6.5
2017-Feb-26 16:33N 29°32' W 094°53'6 0.2
2017-Feb-25 00:33N 29°37' W 094°57'7 7.0
2017-Feb-24 23:33N 29°43' W 095°01'4 4.1
2017-Feb-24 22:33N 29°46' W 095°05'1 1.2
2017-Feb-24 21:28N 29°45' W 095°04'5 5.5
2017-Feb-24 20:33N 29°42' W 094°59'6 6.4
2017-Feb-24 19:32N 29°36' W 094°57'7 6.5
2017-Feb-24 18:31N 29°30' W 094°52'7 0.2
2017-Feb-22 17:29N 29°36' W 094°57'6 6.8
2017-Feb-22 16:33N 29°42' W 095°00'4 0.3
2017-Feb-22 00:25N 29°38' W 094°58'8 7.4
2017-Feb-21 23:21N 29°32' W 094°53'  
Track history (hours):
 
Tides and Currents Weather Stations Pressure Air Temp Water Temp Dewpoint Dewpoint Depression Visibility Wind Speed Wind Dir Waves Ship Positions

St. Elmo

Owner: Marquette Transportation Company Gulf-Inland, LLC, Jefferson, LA. More information available from US FCC via Universal Licensing System and Coast Guard Vessel Documentation Center.

Last reported at 2017-Feb-26 23:33 UTC. Time now 2017-Feb-28 03:18 UTC.
Position N 29°34' W 094°55'.

; draft 3 m.

Type: . MMSI: 367515330.

Date/timePositionNaut miles runAvg speedWind from/ knotsBaromVisibWave heightAir tempDewpointWater temp
2017-Feb-26 23:33N 29°34' W 094°55'6 6.0
2017-Feb-26 22:33N 29°39' W 094°58'6 5.9
2017-Feb-26 21:32N 29°44' W 095°03'3 2.1
2017-Feb-26 20:11N 29°46' W 095°05'0 0.0
2017-Feb-26 19:33N 29°46' W 095°05'5 5.1
2017-Feb-26 18:33N 29°42' W 095°01'6 5.8
2017-Feb-26 17:33N 29°37' W 094°57'6 6.5
2017-Feb-26 16:33N 29°32' W 094°53'6 0.2
2017-Feb-25 00:33N 29°37' W 094°57'7 7.0
2017-Feb-24 23:33N 29°43' W 095°01'4 4.1
2017-Feb-24 22:33N 29°46' W 095°05'1 1.2
2017-Feb-24 21:28N 29°45' W 095°04'5 5.5
2017-Feb-24 20:33N 29°42' W 094°59'6 6.4
2017-Feb-24 19:32N 29°36' W 094°57'7 6.5
2017-Feb-24 18:31N 29°30' W 094°52'7 0.2
2017-Feb-22 17:29N 29°36' W 094°57'6 6.8
2017-Feb-22 16:33N 29°42' W 095°00'4 0.3
2017-Feb-22 00:25N 29°38' W 094°58'8 7.4
2017-Feb-21 23:21N 29°32' W 094°53'  

Dump ship's entire track history